首页
METAR-TAF:

METAR-TAF

机场 :

Edenton, 北卡罗来纳州, 美国

纬度: 36-01-40N, 经度: 076-34-02W, 海拔: 6米

当前天气观测

该预报发布于19分钟前的16:35 UTC
风速13节,风向南转西南,有时为16节阵风
温度 30°C
湿度 70%
气压 1016 hPa
能見度: 16.1公里
散云层高于3400英尺
散云层高于4500英尺
阴天层高于9000英尺

METAR: KEDE 051635Z AUTO 20013G16KT 10SM SCT034 SCT045 OVC090 30/24 A3000 RMK AO2 T02950235

时间: 12:54 (16:54 UTC)


TAF: 丢失

超过4000个机场的气象观测和天气预报(METAR&TAF报告)。

可查询的气象台以黄色和红色小点在地图上表示。

将鼠标移到小点上方,可查看气象台名称。

然后点击查看天气观测和预报。

如需切换地图:点击带黑十字的绿色按钮放大地图;点击带横线的绿色按钮缩小地图;或者点击绿色箭头查看邻近地区的地图。


METAR-TAF: